Terminal Aerodrome Forecast
Issued by NWS Cleveland, OH

Home | Current Version | Previous Version | Text Only | Print | Product List | Glossary Off
Versions: 1 2 3 4 5 6 7 8 9 10 11 12 13 14 15 16 17

000
FTUS41 KCLE 081700
TAFYNG
TAF
KYNG 081724Z 0818/0918 24015G35KT 3SM -TSRA BR BKN012 OVC035CB
     FM081930 25015G25KT 6SM BR VCSH BKN020 OVC040
      TEMPO 0820/0824 SCT020 OVC040
     FM090000 26010KT P6SM SCT025 OVC035
     FM090300 26009KT P6SM SCT030 BKN250
     FM090900 26005KT 5SM BR SCT030
     FM091400 28008KT P6SM VCSH BKN030 OVC040=

USA.gov is the U.S. government's official web portal to all federal, state and local government web resources and services.